Time;durP1;ratioP1;P1;durP2;ratioP2;P2;SDS_P1;SDS_P2;PMS_P1;PMS_P2;Temp;Humidity;BMP_temperature;BMP_pressure;BME280_temperature;BME280_humidity;BME280_pressure;Samples;Min_cycle;Max_cycle;Signal;HPM_P1;HPM_P2
2021/09/15 00:01:04;;;;;;;6.90;4.85;;;17.60;94.40;;;;;;5091646;28;20107;-67
2021/09/15 00:03:34;;;;;;;8.02;4.10;;;17.60;94.20;;;;;;5084962;28;20443;-66
2021/09/15 00:06:01;;;;;;;5.97;4.43;;;17.50;94.30;;;;;;5088602;28;20024;-67
2021/09/15 00:08:26;;;;;;;6.97;4.85;;;17.50;94.40;;;;;;5094013;28;20057;-65
2021/09/15 00:10:52;;;;;;;8.88;4.20;;;17.50;94.60;;;;;;5090981;28;20024;-65
2021/09/15 00:13:18;;;;;;;7.97;5.15;;;17.50;94.60;;;;;;5087058;28;20044;-67
2021/09/15 00:15:43;;;;;;;8.48;5.07;;;17.50;94.50;;;;;;5089255;28;20024;-65
2021/09/15 00:18:09;;;;;;;7.43;4.65;;;17.50;94.60;;;;;;5087510;28;20039;-65
2021/09/15 00:20:35;;;;;;;5.20;4.55;;;17.40;94.70;;;;;;5089629;28;20561;-65
2021/09/15 00:23:00;;;;;;;6.20;4.50;;;17.50;94.70;;;;;;5090102;28;20085;-65
2021/09/15 00:25:26;;;;;;;7.50;5.10;;;17.50;94.80;;;;;;5085268;28;20024;-67
2021/09/15 00:27:52;;;;;;;7.90;5.07;;;17.50;94.70;;;;;;5089110;28;20486;-66
2021/09/15 00:30:17;;;;;;;9.20;4.75;;;17.40;94.80;;;;;;5090561;28;20470;-66
2021/09/15 00:32:43;;;;;;;6.97;4.50;;;17.40;94.90;;;;;;5084792;28;20035;-67
2021/09/15 00:35:09;;;;;;;6.55;4.88;;;17.40;94.90;;;;;;5090135;28;20464;-66
2021/09/15 00:37:35;;;;;;;8.57;4.57;;;17.40;94.90;;;;;;5088232;28;20096;-66
2021/09/15 00:40:01;;;;;;;7.47;4.90;;;17.40;95.10;;;;;;5095365;28;20118;-67
2021/09/15 00:42:27;;;;;;;7.50;5.40;;;17.40;95.10;;;;;;5090752;28;20039;-66
2021/09/15 00:44:54;;;;;;;6.80;5.13;;;17.30;95.00;;;;;;5090033;28;20020;-67
2021/09/15 00:47:20;;;;;;;8.60;4.75;;;17.40;95.00;;;;;;5093438;28;20024;-67
2021/09/15 00:49:45;;;;;;;7.80;4.30;;;17.40;95.10;;;;;;5093604;28;20031;-66
2021/09/15 00:52:11;;;;;;;7.82;5.22;;;17.40;95.00;;;;;;5093841;28;20028;-65
2021/09/15 00:54:37;;;;;;;6.88;4.97;;;17.40;95.10;;;;;;5093835;28;20032;-65
2021/09/15 00:57:02;;;;;;;11.25;5.28;;;17.40;95.10;;;;;;5093259;28;20099;-66
2021/09/15 00:59:29;;;;;;;6.95;4.80;;;17.40;95.10;;;;;;5093754;28;20032;-65
2021/09/15 01:01:54;;;;;;;9.85;5.20;;;17.40;95.20;;;;;;5081913;28;20103;-65
2021/09/15 01:04:20;;;;;;;5.55;4.28;;;17.30;95.10;;;;;;5093111;28;20226;-65
2021/09/15 01:06:46;;;;;;;6.35;5.10;;;17.40;95.20;;;;;;5089214;28;20032;-65
2021/09/15 01:09:12;;;;;;;6.03;4.35;;;17.40;95.20;;;;;;5091986;28;20024;-67
2021/09/15 01:11:38;;;;;;;7.60;5.18;;;17.40;95.20;;;;;;5088230;28;20030;-68
2021/09/15 01:14:08;;;;;;;6.18;4.60;;;17.40;95.20;;;;;;5091303;28;20074;-66
2021/09/15 01:16:52;;;;;;;7.75;5.38;;;17.40;95.30;;;;;;5090618;28;20024;-66
2021/09/15 01:19:18;;;;;;;7.65;5.60;;;17.40;95.20;;;;;;5089747;28;20393;-68
2021/09/15 01:21:45;;;;;;;8.50;4.80;;;17.40;95.20;;;;;;5093292;28;20032;-67
2021/09/15 01:24:11;;;;;;;6.93;5.05;;;17.40;95.30;;;;;;5092244;28;20036;-66
2021/09/15 01:26:37;;;;;;;5.95;4.95;;;17.40;95.30;;;;;;5088150;28;20080;-67
2021/09/15 01:29:03;;;;;;;5.93;5.15;;;17.40;95.30;;;;;;5090752;28;20419;-67
2021/09/15 01:31:29;;;;;;;6.32;5.20;;;17.40;95.30;;;;;;5091478;28;20059;-65
2021/09/15 01:33:55;;;;;;;7.45;4.82;;;17.40;95.30;;;;;;5092136;28;20501;-67
2021/09/15 01:36:21;;;;;;;10.30;5.70;;;17.30;95.30;;;;;;5090492;28;20482;-65
2021/09/15 01:38:47;;;;;;;7.32;5.00;;;17.30;95.30;;;;;;5088648;28;20082;-66
2021/09/15 01:41:12;;;;;;;6.80;4.90;;;17.40;95.40;;;;;;5088358;28;20114;-68
2021/09/15 01:43:38;;;;;;;9.85;5.68;;;17.30;95.30;;;;;;5088463;28;20040;-65
2021/09/15 01:46:04;;;;;;;8.73;5.30;;;17.30;95.10;;;;;;5089405;28;20037;-65
2021/09/15 01:48:29;;;;;;;8.15;5.93;;;17.30;95.40;;;;;;5089285;28;20485;-66
2021/09/15 01:50:55;;;;;;;8.38;5.10;;;17.30;95.30;;;;;;5086151;28;20030;-66
2021/09/15 01:53:21;;;;;;;8.27;5.60;;;17.30;95.30;;;;;;5094877;28;20059;-66
2021/09/15 01:55:46;;;;;;;7.88;5.63;;;17.30;95.30;;;;;;5070974;28;20031;-65
2021/09/15 01:58:12;;;;;;;8.13;5.82;;;17.30;95.40;;;;;;5091690;28;20032;-65
2021/09/15 02:00:38;;;;;;;5.97;4.95;;;17.30;95.40;;;;;;5080382;28;20477;-66
2021/09/15 02:03:03;;;;;;;7.28;5.43;;;17.30;95.40;;;;;;5089656;28;20038;-66
2021/09/15 02:05:30;;;;;;;9.05;5.75;;;17.30;95.40;;;;;;5089843;28;20039;-67
2021/09/15 02:07:56;;;;;;;7.20;5.20;;;17.30;95.40;;;;;;5090059;28;20065;-67
2021/09/15 02:10:22;;;;;;;9.20;5.38;;;17.30;95.40;;;;;;5088313;28;20428;-68
2021/09/15 02:12:47;;;;;;;6.75;5.68;;;17.30;95.40;;;;;;5089334;28;20071;-68
2021/09/15 02:15:13;;;;;;;8.00;6.22;;;17.20;95.40;;;;;;5088781;28;20115;-66
2021/09/15 02:17:40;;;;;;;7.43;5.68;;;17.20;95.40;;;;;;5089473;28;20073;-65
2021/09/15 02:20:08;;;;;;;6.45;5.15;;;17.20;95.50;;;;;;5094377;28;20024;-65
2021/09/15 02:22:34;;;;;;;8.80;5.65;;;17.20;95.50;;;;;;5088700;28;20120;-65
2021/09/15 02:24:59;;;;;;;8.27;5.28;;;17.20;95.50;;;;;;5087326;28;20073;-65
2021/09/15 02:27:25;;;;;;;7.88;5.63;;;17.20;95.50;;;;;;5086364;28;20106;-67
2021/09/15 02:29:51;;;;;;;9.45;5.88;;;17.20;95.50;;;;;;5090318;28;20020;-65
2021/09/15 02:32:16;;;;;;;9.73;6.40;;;17.20;95.50;;;;;;5091309;28;20031;-65
2021/09/15 02:34:42;;;;;;;8.20;5.60;;;17.20;95.60;;;;;;5082211;28;20021;-67
2021/09/15 02:37:08;;;;;;;8.60;5.63;;;17.20;95.60;;;;;;5088095;28;20761;-66
2021/09/15 02:39:33;;;;;;;8.65;6.20;;;17.20;95.60;;;;;;5087375;28;20024;-66
2021/09/15 02:41:59;;;;;;;8.18;5.50;;;17.20;95.60;;;;;;5089314;28;20107;-66
2021/09/15 02:44:25;;;;;;;8.48;6.05;;;17.10;95.60;;;;;;5090443;28;20024;-67
2021/09/15 02:46:50;;;;;;;9.13;6.15;;;17.20;95.70;;;;;;5089106;28;20024;-66
2021/09/15 02:49:16;;;;;;;8.32;6.28;;;17.20;95.70;;;;;;5089229;28;20423;-66
2021/09/15 02:51:42;;;;;;;7.18;5.70;;;17.20;95.70;;;;;;5089623;28;20040;-65
2021/09/15 02:54:07;;;;;;;7.68;6.05;;;17.20;95.60;;;;;;5086192;28;20033;-67
2021/09/15 02:56:33;;;;;;;7.70;6.45;;;17.20;95.70;;;;;;5092397;28;20067;-67
2021/09/15 02:58:59;;;;;;;8.57;6.13;;;17.10;95.70;;;;;;5088572;28;20057;-67
2021/09/15 03:01:24;;;;;;;7.80;6.07;;;17.20;95.80;;;;;;5087433;28;20077;-66
2021/09/15 03:03:50;;;;;;;7.78;5.55;;;17.20;95.70;;;;;;5086778;28;20059;-65
2021/09/15 03:06:16;;;;;;;8.65;6.15;;;17.10;95.80;;;;;;5089907;28;20035;-66
2021/09/15 03:08:41;;;;;;;8.60;5.88;;;17.20;95.80;;;;;;5080570;28;20020;-66
2021/09/15 03:11:07;;;;;;;9.45;6.20;;;17.20;95.90;;;;;;5081959;28;20561;-69
2021/09/15 03:13:32;;;;;;;10.55;6.65;;;17.10;96.00;;;;;;5082636;28;20043;-67
2021/09/15 03:15:58;;;;;;;10.93;6.95;;;17.10;96.10;;;;;;5090861;28;20024;-64
2021/09/15 03:18:24;;;;;;;9.52;6.68;;;17.10;96.10;;;;;;5085665;28;20024;-65
2021/09/15 03:20:49;;;;;;;10.05;7.07;;;17.10;96.20;;;;;;5090383;28;20089;-68
2021/09/15 03:23:15;;;;;;;8.80;6.53;;;17.10;96.30;;;;;;5088297;28;20058;-66
2021/09/15 03:25:41;;;;;;;8.38;6.40;;;17.00;96.30;;;;;;5089134;28;20058;-65
2021/09/15 03:28:06;;;;;;;12.68;7.22;;;17.00;96.40;;;;;;5090367;28;20028;-65
2021/09/15 03:30:32;;;;;;;10.32;6.82;;;17.00;96.80;;;;;;5090431;28;20028;-66
2021/09/15 03:32:58;;;;;;;9.88;7.18;;;17.00;97.00;;;;;;5089326;28;20034;-67
2021/09/15 03:35:23;;;;;;;9.98;7.00;;;17.00;97.30;;;;;;5090575;28;20036;-65
2021/09/15 03:37:49;;;;;;;10.50;7.07;;;16.90;97.80;;;;;;5089872;28;20121;-65
2021/09/15 03:40:15;;;;;;;10.15;7.50;;;16.80;98.10;;;;;;5099854;28;20096;-65
2021/09/15 03:42:41;;;;;;;13.32;8.10;;;16.80;98.30;;;;;;5071145;28;20490;-66
2021/09/15 03:45:07;;;;;;;10.25;7.22;;;16.80;98.60;;;;;;5088142;28;20027;-66
2021/09/15 03:47:33;;;;;;;9.63;7.85;;;16.80;98.70;;;;;;5087983;28;20024;-67
2021/09/15 03:49:58;;;;;;;13.20;8.18;;;16.70;98.50;;;;;;5090039;28;20543;-65
2021/09/15 03:52:24;;;;;;;12.35;8.57;;;16.70;98.70;;;;;;5091114;28;20397;-67
2021/09/15 03:54:50;;;;;;;12.13;8.32;;;16.70;98.80;;;;;;5091298;28;20040;-65
2021/09/15 03:57:15;;;;;;;9.82;7.75;;;16.60;98.90;;;;;;5090737;28;20036;-68
2021/09/15 03:59:41;;;;;;;11.23;7.47;;;16.60;98.90;;;;;;5089640;28;20036;-65
2021/09/15 04:02:07;;;;;;;9.55;7.35;;;16.60;99.00;;;;;;5087402;28;20035;-65
2021/09/15 04:04:33;;;;;;;9.90;8.35;;;16.60;99.00;;;;;;5091610;28;20029;-67
2021/09/15 04:06:58;;;;;;;9.10;7.82;;;16.60;99.10;;;;;;5088438;28;20085;-67
2021/09/15 04:09:24;;;;;;;10.05;8.05;;;16.60;99.20;;;;;;5088723;28;20652;-66
2021/09/15 04:11:50;;;;;;;10.65;7.78;;;16.60;99.20;;;;;;5088875;28;20081;-65
2021/09/15 04:14:15;;;;;;;11.85;8.15;;;16.60;99.10;;;;;;5094555;28;20039;-65
2021/09/15 04:16:41;;;;;;;11.35;8.20;;;16.50;99.10;;;;;;5088778;28;20036;-67
2021/09/15 04:19:07;;;;;;;11.70;7.78;;;16.60;99.10;;;;;;5087860;28;20482;-65
2021/09/15 04:21:33;;;;;;;14.35;8.82;;;16.60;99.10;;;;;;5096011;28;20027;-65
2021/09/15 04:24:16;;;;;;;13.57;8.40;;;16.60;99.00;;;;;;5088639;28;20106;-65
2021/09/15 04:32:10;;;;;;;10.77;8.25;;;16.60;99.10;;;;;;5089691;28;20024;-66
2021/09/15 04:34:36;;;;;;;11.45;8.50;;;16.60;99.10;;;;;;5093944;28;20078;-66
2021/09/15 04:37:01;;;;;;;11.13;7.97;;;16.60;99.10;;;;;;5093092;28;20037;-66
2021/09/15 04:39:27;;;;;;;11.52;8.02;;;16.50;99.10;;;;;;5092842;28;20066;-65
2021/09/15 04:41:53;;;;;;;13.07;7.93;;;16.50;99.10;;;;;;5094415;28;20032;-65
2021/09/15 04:44:18;;;;;;;11.05;8.05;;;16.50;99.10;;;;;;5095816;28;20064;-66
2021/09/15 04:46:44;;;;;;;11.35;8.60;;;16.50;99.10;;;;;;5095797;28;20031;-68
2021/09/15 04:49:11;;;;;;;12.02;8.13;;;16.50;99.20;;;;;;5075799;28;20082;-66
2021/09/15 04:51:36;;;;;;;10.85;8.43;;;16.50;99.20;;;;;;5091478;28;20039;-67
2021/09/15 04:54:02;;;;;;;10.70;8.43;;;16.50;99.20;;;;;;5086429;28;20028;-65
2021/09/15 04:56:28;;;;;;;12.25;8.30;;;16.50;99.30;;;;;;5094721;28;20101;-65
2021/09/15 04:58:53;;;;;;;13.30;8.85;;;16.50;99.30;;;;;;5092995;28;20489;-65
2021/09/15 05:01:19;;;;;;;11.52;8.25;;;16.40;99.20;;;;;;5091921;28;20043;-65
2021/09/15 05:03:45;;;;;;;12.45;9.77;;;16.50;99.30;;;;;;5093817;28;20052;-67
2021/09/15 05:06:10;;;;;;;10.95;8.60;;;16.40;99.20;;;;;;5087737;28;20500;-65
2021/09/15 05:08:36;;;;;;;12.13;8.27;;;16.50;99.20;;;;;;5093221;28;20046;-65
2021/09/15 05:11:02;;;;;;;12.48;8.32;;;16.40;99.20;;;;;;5090591;28;20358;-65
2021/09/15 05:13:27;;;;;;;12.10;8.88;;;16.50;99.20;;;;;;5093769;28;20038;-66
2021/09/15 05:15:53;;;;;;;9.82;8.18;;;16.50;99.30;;;;;;5090889;28;20064;-66
2021/09/15 05:18:19;;;;;;;10.70;8.55;;;16.50;99.20;;;;;;5091859;28;20134;-67
2021/09/15 05:20:45;;;;;;;12.52;8.73;;;16.50;99.20;;;;;;5090046;28;20028;-65
2021/09/15 05:23:10;;;;;;;11.43;8.57;;;16.50;99.10;;;;;;5092669;28;20086;-66
2021/09/15 05:25:36;;;;;;;11.07;8.20;;;16.50;99.10;;;;;;5093729;28;20059;-66
2021/09/15 05:28:03;;;;;;;13.30;9.10;;;16.50;99.00;;;;;;5094204;28;20039;-67
2021/09/15 05:30:29;;;;;;;13.98;9.18;;;16.50;98.90;;;;;;5093646;28;20020;-65
2021/09/15 05:32:55;;;;;;;11.82;8.55;;;16.50;98.80;;;;;;5097154;28;20111;-67
2021/09/15 05:35:20;;;;;;;12.70;8.90;;;16.50;98.80;;;;;;5091036;28;20602;-66
2021/09/15 05:37:46;;;;;;;11.02;8.80;;;16.50;98.80;;;;;;5090525;28;20031;-67
2021/09/15 05:40:13;;;;;;;13.15;8.93;;;16.50;98.90;;;;;;5090214;28;20635;-67
2021/09/15 05:42:39;;;;;;;17.75;8.82;;;16.60;98.90;;;;;;5091038;28;20032;-68
2021/09/15 05:45:06;;;;;;;15.30;9.05;;;16.60;98.90;;;;;;5092478;28;20028;-66
2021/09/15 05:47:32;;;;;;;14.85;9.32;;;16.60;98.80;;;;;;5073000;28;20485;-67
2021/09/15 05:49:58;;;;;;;11.75;8.52;;;16.70;98.80;;;;;;5092669;28;20062;-65
2021/09/15 05:52:24;;;;;;;12.63;8.93;;;16.60;98.90;;;;;;5092713;28;20043;-69
2021/09/15 05:54:50;;;;;;;13.02;9.07;;;16.60;98.90;;;;;;5092955;28;20036;-64
2021/09/15 05:57:15;;;;;;;12.15;9.48;;;16.60;98.90;;;;;;5092718;28;20031;-69
2021/09/15 05:59:41;;;;;;;13.48;8.23;;;16.60;98.80;;;;;;5088144;28;20028;-66
2021/09/15 06:02:07;;;;;;;12.05;8.98;;;16.60;98.70;;;;;;5091213;28;20118;-67
2021/09/15 06:04:33;;;;;;;15.23;10.18;;;16.60;98.70;;;;;;5092844;28;20107;-65
2021/09/15 06:06:58;;;;;;;13.57;9.10;;;16.70;98.70;;;;;;5091734;28;20413;-68
2021/09/15 06:09:24;;;;;;;10.73;8.88;;;16.60;98.70;;;;;;5092828;28;20072;-66
2021/09/15 06:11:50;;;;;;;12.80;8.50;;;16.60;98.60;;;;;;5090590;28;20081;-67
2021/09/15 06:14:16;;;;;;;12.57;9.05;;;16.60;98.70;;;;;;5091096;28;20108;-66
2021/09/15 06:16:41;;;;;;;9.65;8.18;;;16.60;98.70;;;;;;5088484;28;20386;-67
2021/09/15 06:19:07;;;;;;;9.48;7.85;;;16.70;98.60;;;;;;5091995;28;20071;-68
2021/09/15 06:21:33;;;;;;;11.48;8.55;;;16.70;98.60;;;;;;5091509;28;20028;-68
2021/09/15 06:23:59;;;;;;;10.63;8.50;;;16.70;98.50;;;;;;5090881;28;20035;-67
2021/09/15 06:26:25;;;;;;;11.88;8.48;;;16.70;98.40;;;;;;5091960;28;20024;-66
2021/09/15 06:28:52;;;;;;;13.65;8.48;;;16.80;98.40;;;;;;5092239;28;20020;-67
2021/09/15 06:31:18;;;;;;;12.00;8.20;;;16.80;98.40;;;;;;5087545;28;20398;-67
2021/09/15 06:33:45;;;;;;;12.02;9.18;;;16.80;98.30;;;;;;5092201;28;20036;-67
2021/09/15 06:36:11;;;;;;;11.85;9.25;;;16.80;98.30;;;;;;5092220;28;20035;-68
2021/09/15 06:38:36;;;;;;;12.63;8.73;;;16.80;98.30;;;;;;5085550;28;20028;-67
2021/09/15 06:41:02;;;;;;;12.68;8.73;;;16.80;98.30;;;;;;5090370;28;20129;-67
2021/09/15 06:43:28;;;;;;;12.27;8.93;;;16.90;98.40;;;;;;5088166;28;20024;-67
2021/09/15 06:45:54;;;;;;;19.83;9.60;;;16.90;98.40;;;;;;5091677;28;20081;-68
2021/09/15 06:48:20;;;;;;;11.80;9.32;;;16.80;98.30;;;;;;5094820;28;20024;-67
2021/09/15 06:50:47;;;;;;;13.10;9.43;;;16.80;98.40;;;;;;5098443;28;20050;-67
2021/09/15 06:53:13;;;;;;;14.07;9.50;;;16.80;98.30;;;;;;5076556;28;20035;-67
2021/09/15 06:55:39;;;;;;;13.30;9.15;;;16.80;98.30;;;;;;5090401;28;20036;-70
2021/09/15 06:58:04;;;;;;;11.13;8.32;;;16.80;98.40;;;;;;5081116;28;20078;-67
2021/09/15 07:00:30;;;;;;;11.55;9.02;;;16.80;98.30;;;;;;5089238;28;20397;-67
2021/09/15 07:02:57;;;;;;;11.30;8.48;;;16.80;98.30;;;;;;5091060;28;20024;-65
2021/09/15 07:05:23;;;;;;;11.70;9.13;;;16.80;98.30;;;;;;5090251;28;20016;-67
2021/09/15 07:07:49;;;;;;;14.65;9.40;;;16.80;98.20;;;;;;5087899;28;20054;-67
2021/09/15 07:10:17;;;;;;;13.82;8.90;;;16.90;98.20;;;;;;5074751;28;20024;-67
2021/09/15 07:12:44;;;;;;;13.07;9.88;;;17.00;98.30;;;;;;5091386;28;20036;-67
2021/09/15 07:15:11;;;;;;;12.93;8.57;;;17.00;98.60;;;;;;5085584;28;20027;-66
2021/09/15 07:17:36;;;;;;;10.77;8.35;;;17.00;98.50;;;;;;5084828;28;20080;-67
2021/09/15 07:20:03;;;;;;;11.60;8.70;;;17.00;98.40;;;;;;5091594;28;20099;-66
2021/09/15 07:22:29;;;;;;;16.08;9.45;;;17.00;98.40;;;;;;5094751;28;20477;-67
2021/09/15 07:24:55;;;;;;;12.68;9.63;;;17.00;98.50;;;;;;5093290;28;20031;-68
2021/09/15 07:27:21;;;;;;;18.40;9.20;;;17.00;98.40;;;;;;5088549;28;20052;-67
2021/09/15 07:29:46;;;;;;;11.43;8.93;;;17.00;98.10;;;;;;5089441;28;20465;-67
2021/09/15 07:32:12;;;;;;;14.90;10.23;;;17.00;98.10;;;;;;5086185;28;20032;-66
2021/09/15 07:34:41;;;;;;;12.38;8.80;;;17.00;98.20;;;;;;5077312;28;20029;-66
2021/09/15 07:37:07;;;;;;;15.77;9.15;;;17.00;98.10;;;;;;5096159;28;20036;-66
2021/09/15 07:39:33;;;;;;;14.98;9.00;;;17.00;98.20;;;;;;5090808;28;20028;-66
2021/09/15 07:41:59;;;;;;;12.95;8.60;;;17.00;98.10;;;;;;5091833;28;20440;-65
2021/09/15 07:44:24;;;;;;;12.55;8.43;;;17.10;98.20;;;;;;5094856;28;20024;-66
2021/09/15 07:46:50;;;;;;;12.25;8.48;;;17.10;98.20;;;;;;5087927;28;20029;-67
2021/09/15 07:49:16;;;;;;;12.35;9.10;;;17.10;98.10;;;;;;5067024;28;20020;-67
2021/09/15 07:51:41;;;;;;;15.95;9.10;;;17.20;98.10;;;;;;5094874;28;20035;-67
2021/09/15 07:54:07;;;;;;;10.23;8.43;;;17.20;98.00;;;;;;5073705;28;20032;-66
2021/09/15 07:56:33;;;;;;;11.13;8.75;;;17.20;97.90;;;;;;5075330;28;20043;-67
2021/09/15 07:58:59;;;;;;;20.00;9.30;;;17.30;98.00;;;;;;5104824;28;20024;-67
2021/09/15 08:01:25;;;;;;;10.02;8.15;;;17.30;97.90;;;;;;5094261;28;20110;-67
2021/09/15 08:03:52;;;;;;;11.73;8.77;;;17.30;98.00;;;;;;5093054;28;20082;-68
2021/09/15 08:06:19;;;;;;;14.23;9.00;;;17.30;98.00;;;;;;5097844;28;20038;-66
2021/09/15 08:08:45;;;;;;;13.60;9.23;;;17.30;98.00;;;;;;5092419;28;20386;-69
2021/09/15 08:11:10;;;;;;;14.70;9.75;;;17.30;98.00;;;;;;5094217;28;20386;-68
2021/09/15 08:13:36;;;;;;;14.52;9.98;;;17.30;98.30;;;;;;5090778;28;20027;-68
2021/09/15 08:16:02;;;;;;;13.40;9.63;;;17.20;98.50;;;;;;5089309;28;20517;-66
2021/09/15 08:18:28;;;;;;;12.55;10.13;;;17.20;98.70;;;;;;5085956;28;20494;-66
2021/09/15 08:20:54;;;;;;;14.15;9.63;;;17.20;98.90;;;;;;5091606;28;20053;-66
2021/09/15 08:23:20;;;;;;;13.73;9.75;;;17.10;99.20;;;;;;5089708;28;20036;-66
2021/09/15 08:25:47;;;;;;;12.25;9.68;;;17.10;99.10;;;;;;5089620;28;20039;-65
2021/09/15 08:28:13;;;;;;;13.68;9.98;;;17.10;99.30;;;;;;5092602;28;20024;-66
2021/09/15 08:30:39;;;;;;;18.33;10.25;;;17.10;99.50;;;;;;5078623;28;20046;-66
2021/09/15 08:33:04;;;;;;;16.63;10.82;;;17.10;99.70;;;;;;5088817;28;20028;-66
2021/09/15 08:35:33;;;;;;;11.88;10.10;;;17.10;99.80;;;;;;5092000;28;20085;-66
2021/09/15 08:37:59;;;;;;;15.07;10.85;;;17.10;99.90;;;;;;5084711;28;20074;-66
2021/09/15 08:40:26;;;;;;;13.65;10.52;;;17.20;99.90;;;;;;5091474;28;20051;-68
2021/09/15 08:42:52;;;;;;;15.70;11.05;;;17.20;99.90;;;;;;5092020;28;20035;-68
2021/09/15 08:45:23;;;;;;;15.05;11.50;;;17.20;99.90;;;;;;5097228;28;20026;-68
2021/09/15 08:47:49;;;;;;;14.20;11.68;;;17.20;99.90;;;;;;5083563;28;20390;-66
2021/09/15 08:50:16;;;;;;;12.85;10.63;;;17.20;99.90;;;;;;5091288;28;20363;-66
2021/09/15 08:52:43;;;;;;;13.75;10.50;;;17.20;99.90;;;;;;5093705;28;20036;-67
2021/09/15 08:55:10;;;;;;;16.52;11.43;;;17.30;99.90;;;;;;5098348;28;20502;-66
2021/09/15 08:57:37;;;;;;;14.38;10.95;;;17.20;99.90;;;;;;5092804;28;20032;-69
2021/09/15 09:00:05;;;;;;;14.50;11.30;;;17.30;99.90;;;;;;5088873;28;20054;-66
2021/09/15 09:02:43;;;;;;;14.48;11.07;;;17.20;99.90;;;;;;5097762;28;20058;-66
2021/09/15 09:05:10;;;;;;;16.88;11.63;;;17.30;99.90;;;;;;5094149;28;20066;-67
2021/09/15 09:07:36;;;;;;;14.70;12.02;;;17.30;99.90;;;;;;5095737;28;20021;-68
2021/09/15 09:10:10;;;;;;;18.17;12.77;;;17.30;99.90;;;;;;5090036;28;20432;-66
2021/09/15 09:12:39;;;;;;;15.88;11.07;;;17.30;99.90;;;;;;5091779;28;20432;-65
2021/09/15 09:15:15;;;;;;;17.48;12.20;;;17.20;99.90;;;;;;5094074;28;20036;-67
2021/09/15 09:17:41;;;;;;;15.45;12.27;;;17.20;99.90;;;;;;5090359;28;20430;-68
2021/09/15 09:20:20;;;;;;;23.02;12.63;;;17.20;99.90;;;;;;5084060;28;20097;-69
2021/09/15 09:23:05;;;;;;;17.48;13.57;;;17.20;99.90;;;;;;5089710;28;20116;-68
2021/09/15 09:25:37;;;;;;;18.73;12.60;;;17.20;99.90;;;;;;5090113;28;20052;-68
2021/09/15 09:28:29;;;;;;;14.75;12.35;;;17.20;99.90;;;;;;5090633;28;20432;-68
2021/09/15 09:30:58;;;;;;;16.75;12.68;;;17.20;99.90;;;;;;5090521;28;20024;-66
2021/09/15 09:33:24;;;;;;;16.83;12.68;;;17.20;99.90;;;;;;5091391;28;20063;-66
2021/09/15 09:35:53;;;;;;;16.67;12.48;;;17.10;99.90;;;;;;5088707;28;20032;-67
2021/09/15 09:38:39;;;;;;;16.65;12.30;;;17.10;99.90;;;;;;5088871;28;20058;-68
2021/09/15 09:41:10;;;;;;;17.98;13.07;;;17.10;99.90;;;;;;5089981;28;20032;-69
2021/09/15 09:43:50;;;;;;;18.08;13.98;;;17.10;99.90;;;;;;5084358;28;20549;-68
2021/09/15 09:46:21;;;;;;;19.35;13.65;;;17.10;99.90;;;;;;5087225;28;20031;-67
2021/09/15 09:48:56;;;;;;;20.40;13.25;;;17.10;99.90;;;;;;5086661;28;20474;-66
2021/09/15 09:51:41;;;;;;;16.23;12.85;;;17.10;99.90;;;;;;5088856;28;20525;-69
2021/09/15 09:54:27;;;;;;;16.35;13.27;;;17.10;99.90;;;;;;5086551;28;20478;-66
2021/09/15 09:56:55;;;;;;;19.40;12.85;;;17.10;99.90;;;;;;5088651;28;20714;-67
2021/09/15 09:59:25;;;;;;;23.73;13.80;;;17.10;99.90;;;;;;5087824;28;20032;-67
2021/09/15 10:02:02;;;;;;;18.00;13.77;;;17.10;99.90;;;;;;5086648;28;20031;-67
2021/09/15 10:04:28;;;;;;;20.15;13.30;;;17.10;99.90;;;;;;5086802;28;20086;-67
2021/09/15 10:06:55;;;;;;;20.90;13.70;;;17.20;99.90;;;;;;5082700;28;20073;-68
2021/09/15 10:09:23;;;;;;;19.83;13.00;;;17.20;99.90;;;;;;5088336;28;20024;-66
2021/09/15 10:11:49;;;;;;;18.08;12.70;;;17.30;99.90;;;;;;5094660;28;20028;-66
2021/09/15 10:14:16;;;;;;;16.80;13.25;;;17.30;99.90;;;;;;5084782;28;20124;-67
2021/09/15 10:16:46;;;;;;;16.35;12.52;;;17.20;99.90;;;;;;5085628;28;20032;-68
2021/09/15 10:19:15;;;;;;;19.40;13.43;;;17.20;99.90;;;;;;5086588;28;20513;-66
2021/09/15 10:21:41;;;;;;;17.13;12.85;;;17.20;99.90;;;;;;5088606;28;20085;-66
2021/09/15 10:24:07;;;;;;;16.77;12.63;;;17.20;99.90;;;;;;5088356;28;20485;-68
2021/09/15 10:26:38;;;;;;;20.58;14.52;;;17.20;99.90;;;;;;5071585;28;20093;-67
2021/09/15 10:29:15;;;;;;;20.95;14.85;;;17.20;99.90;;;;;;5091013;28;20638;-67
2021/09/15 10:32:08;;;;;;;17.00;13.48;;;17.20;99.90;;;;;;5088794;28;20103;-68
2021/09/15 10:34:36;;;;;;;16.00;12.52;;;17.30;99.90;;;;;;5086960;28;20032;-68
2021/09/15 10:37:22;;;;;;;18.25;12.90;;;17.30;99.90;;;;;;5088970;28;20028;-68
2021/09/15 10:39:58;;;;;;;17.42;12.13;;;17.30;99.90;;;;;;5056520;28;20102;-66
2021/09/15 10:42:39;;;;;;;14.32;12.02;;;17.40;99.90;;;;;;5085330;28;20482;-66
2021/09/15 10:45:11;;;;;;;14.85;12.93;;;17.40;99.90;;;;;;5081800;28;20035;-66
2021/09/15 10:47:58;;;;;;;16.05;12.38;;;17.40;99.90;;;;;;5088692;28;20038;-68
2021/09/15 10:50:31;;;;;;;15.25;12.57;;;17.40;99.90;;;;;;5083879;28;20050;-66
2021/09/15 10:53:08;;;;;;;17.30;12.85;;;17.50;99.90;;;;;;5090850;28;20114;-66
2021/09/15 10:55:46;;;;;;;17.52;12.40;;;17.50;99.90;;;;;;5089722;28;20028;-66
2021/09/15 10:58:26;;;;;;;19.05;13.13;;;17.50;99.90;;;;;;5075064;28;20028;-67
2021/09/15 11:00:53;;;;;;;16.02;12.75;;;17.60;99.90;;;;;;5085802;28;20024;-67
2021/09/15 11:03:28;;;;;;;17.13;13.73;;;17.60;99.90;;;;;;5083770;28;20036;-66
2021/09/15 11:05:55;;;;;;;17.42;14.15;;;17.60;99.90;;;;;;5087709;28;20020;-68
2021/09/15 11:08:43;;;;;;;18.65;14.35;;;17.60;99.90;;;;;;5087600;28;20367;-66
2021/09/15 11:11:21;;;;;;;18.00;13.30;;;17.70;99.90;;;;;;5084321;28;20035;-68
2021/09/15 11:13:59;;;;;;;18.17;13.13;;;17.70;99.90;;;;;;5085335;28;20020;-67
2021/09/15 11:16:27;;;;;;;18.85;13.35;;;17.70;99.90;;;;;;5077270;28;20032;-66
2021/09/15 11:18:58;;;;;;;22.90;14.30;;;17.70;99.90;;;;;;5086005;28;20043;-67
2021/09/15 11:21:25;;;;;;;18.23;13.80;;;17.70;99.90;;;;;;5089941;28;20105;-68
2021/09/15 11:24:09;;;;;;;17.50;13.55;;;17.70;99.90;;;;;;5089193;28;20157;-67
2021/09/15 11:26:43;;;;;;;18.58;13.65;;;17.70;99.90;;;;;;5085486;28;20078;-67
2021/09/15 11:29:09;;;;;;;17.38;14.65;;;17.70;99.90;;;;;;5088409;28;20024;-68
2021/09/15 11:31:38;;;;;;;21.60;14.18;;;17.60;99.90;;;;;;5087827;28;20082;-68
2021/09/15 11:34:10;;;;;;;15.85;12.90;;;17.60;99.90;;;;;;5080793;28;20150;-66
2021/09/15 11:36:36;;;;;;;20.92;14.55;;;17.60;99.90;;;;;;5086845;28;20032;-66
2021/09/15 11:39:03;;;;;;;19.00;13.77;;;17.60;99.90;;;;;;5087846;28;20497;-65
2021/09/15 11:41:29;;;;;;;18.67;14.40;;;17.60;99.90;;;;;;5086137;28;20036;-67
2021/09/15 11:43:55;;;;;;;24.80;15.98;;;17.70;99.90;;;;;;5086406;28;20117;-68
2021/09/15 11:46:32;;;;;;;18.88;14.75;;;17.70;99.90;;;;;;5087920;28;20047;-68
2021/09/15 11:48:57;;;;;;;17.67;14.50;;;17.70;99.90;;;;;;5082086;28;20020;-67
2021/09/15 11:51:27;;;;;;;18.85;13.40;;;17.70;99.90;;;;;;5085763;28;20024;-68
2021/09/15 11:54:03;;;;;;;17.67;13.70;;;17.70;99.90;;;;;;5085129;28;20078;-68
2021/09/15 11:56:45;;;;;;;20.48;14.60;;;17.70;99.90;;;;;;5083350;28;20028;-68
2021/09/15 11:59:12;;;;;;;17.63;13.70;;;17.70;99.90;;;;;;5087863;28;20040;-69
2021/09/15 12:01:41;;;;;;;19.80;14.25;;;17.70;99.90;;;;;;5088340;28;20087;-68
2021/09/15 12:04:09;;;;;;;19.38;14.90;;;17.70;99.90;;;;;;5089599;28;20024;-67
2021/09/15 12:06:35;;;;;;;18.95;13.75;;;17.70;99.90;;;;;;5089226;28;20543;-68
2021/09/15 12:09:02;;;;;;;20.42;15.30;;;17.60;99.90;;;;;;5086478;28;20035;-67
2021/09/15 12:11:39;;;;;;;19.70;15.93;;;17.60;99.90;;;;;;5089428;28;20108;-68
2021/09/15 12:14:08;;;;;;;21.45;15.38;;;17.60;99.90;;;;;;5066278;28;20026;-66
2021/09/15 12:16:39;;;;;;;837.75;578.13;;;17.70;99.90;;;;;;5085731;28;20476;-66
2021/09/15 12:19:21;;;;;;;864.75;629.55;;;17.70;99.90;;;;;;5082754;28;20101;-65
2021/09/15 12:21:52;;;;;;;431.83;329.65;;;17.60;99.90;;;;;;5084210;28;20025;-66
2021/09/15 12:24:19;;;;;;;640.95;427.13;;;17.60;99.90;;;;;;5089873;28;20028;-65
2021/09/15 12:26:45;;;;;;;146.38;90.88;;;17.60;99.90;;;;;;5087396;28;20046;-66
2021/09/15 12:29:16;;;;;;;38.40;26.63;;;17.60;99.90;;;;;;5071466;28;20024;-66
2021/09/15 12:31:48;;;;;;;24.48;17.42;;;17.60;99.90;;;;;;5084391;28;20028;-69
2021/09/15 12:34:30;;;;;;;23.95;17.52;;;17.60;99.90;;;;;;5087571;28;20390;-66
2021/09/15 12:37:13;;;;;;;23.52;16.98;;;17.50;99.90;;;;;;5078906;28;20036;-67
2021/09/15 12:39:54;;;;;;;25.90;18.45;;;17.50;99.90;;;;;;5087658;28;20035;-68
2021/09/15 12:42:26;;;;;;;25.58;18.48;;;17.50;99.90;;;;;;5093707;28;20043;-67
2021/09/15 12:45:08;;;;;;;26.35;18.92;;;17.40;99.90;;;;;;5089370;28;20028;-68